Latest Weather Observations for Moruya Airport

IDN60901

Issued at 1:51 am EDT Wednesday 20 March 2019 (issued every 10 minutes, with the page automatically refreshed every 10 minutes)

About weather observations | Map of Canberra area stations | Latest observations for Canberra area | Other Formats
Station Details ID: 069148 Name: MORUYA AIRPORT AWS Lat: -35.90 Lon: 150.14 Height: 4.0 m
Data from the previous 72 hours. | See also: Recent months at Moruya Airport
Date/Time
EDT
Temp
°C
App
Temp
°C
Dew
Point
°C
Rel
Hum
%
Delta-T
°C
Wind Press
QNH
hPa
Press
MSL
hPa
Rain since
9am
mm
Dir  Spd
km/h
Gust
km/h
Spd
kts
Gust
kts
20/01:30am 19.3 20.9 18.3 94 0.6 WSW 7 11 4 6 1014.3 1014.2 12.4
20/01:00am 19.5 21.2 18.5 94 0.6 W 7 11 4 6 1014.5 1014.4 12.4
20/12:30am 19.5 22.5 18.5 94 0.6 CALM 0 0 0 0 1014.7 1014.6 12.4
20/12:00am 19.6 21.9 18.6 94 0.6 WSW 4 7 2 4 1014.9 1014.8 12.4
 
Date/Time
EDT
Temp
°C
App
Temp
°C
Dew
Point
°C
Rel
Hum
%
Delta-T
°C
Wind Press
QNH
hPa
Press
MSL
hPa
Rain since
9am
mm
Dir  Spd
km/h
Gust
km/h
Spd
kts
Gust
kts
19/11:30pm 19.6 21.5 18.6 94 0.6 W 6 7 3 4 1015.0 1014.9 12.4
19/11:00pm 20.0 22.1 19.0 94 0.6 SW 6 7 3 4 1015.1 1015.0 12.2
19/10:30pm 20.2 21.8 19.2 94 0.6 WNW 9 11 5 6 1015.1 1015.0 12.0
19/10:23pm 20.3 22.0 19.3 94 0.6 WNW 9 11 5 6 1015.0 1014.9 12.0
19/10:00pm 20.4 22.7 19.4 94 0.6 S 6 13 3 7 1015.0 1014.9 10.6
19/09:43pm 20.2 22.1 19.0 93 0.8 W 7 9 4 5 1015.0 1014.9 3.4
19/09:30pm 19.9 21.8 18.6 92 0.8 W 6 9 3 5 1014.8 1014.7 2.6
19/09:00pm 20.1 21.8 18.6 91 0.9 W 7 9 4 5 1014.7 1014.6 2.6
19/08:30pm 20.2 21.9 18.5 90 1.1 WSW 7 11 4 6 1014.5 1014.4 2.6
19/08:00pm 20.8 22.3 18.9 89 1.2 SW 9 13 5 7 1014.1 1014.0 2.6
19/07:30pm 21.4 23.4 19.1 87 1.5 SSW 7 11 4 6 1013.9 1013.8 2.6
19/07:00pm 21.9 24.0 19.3 85 1.7 SW 7 11 4 6 1013.7 1013.6 2.6
19/06:30pm 22.4 23.8 19.6 84 1.8 S 11 17 6 9 1013.6 1013.5 2.6
19/06:00pm 22.5 23.6 19.7 84 1.8 SSE 13 19 7 10 1013.3 1013.2 2.6
19/05:30pm 23.3 23.1 19.7 80 2.3 SSE 20 28 11 15 1013.1 1013.0 2.6
19/05:00pm 23.8 23.5 19.1 75 3.0 SSE 19 24 10 13 1013.0 1012.9 2.6
19/04:30pm 24.5 24.7 20.2 77 2.8 SE 19 26 10 14 1013.1 1013.0 2.6
19/04:00pm 24.2 24.0 19.7 76 2.9 SSE 20 26 11 14 1013.2 1013.1 2.6
19/03:30pm 24.4 24.2 19.7 75 3.0 SE 20 28 11 15 1013.3 1013.2 2.6
19/03:00pm 24.2 23.7 19.1 73 3.3 SSE 20 28 11 15 1013.3 1013.2 2.4
19/02:30pm 24.5 23.6 19.8 75 3.0 SSE 24 33 13 18 1013.6 1013.5 2.4
19/02:00pm 23.9 22.9 19.6 77 2.8 SSE 24 30 13 16 1013.8 1013.7 2.4
19/01:30pm 23.4 23.9 19.3 78 2.6 S 15 24 8 13 1014.1 1014.0 2.4
19/01:00pm 23.2 23.2 19.8 81 2.2 S 19 24 10 13 1014.4 1014.3 2.4
19/12:30pm 22.2 23.4 19.9 87 1.5 SSW 13 17 7 9 1014.7 1014.6 2.4
19/12:00pm 21.9 22.0 20.0 89 1.2 SSE 19 24 10 13 1015.0 1014.9 2.2
19/11:38am 22.0 23.5 20.5 91 1.0 SSW 13 17 7 9 1015.2 1015.1 2.2
19/11:30am 22.2 23.8 20.8 92 0.9 SSW 13 17 7 9 1015.3 1015.2 2.2
19/11:19am 21.6 21.5 19.9 90 1.1 S 20 32 11 17 1015.3 1015.2 1.6
19/11:00am 24.2 24.5 19.5 75 3.0 S 17 24 9 13 1015.0 1014.9 0.0
19/10:30am 23.9 25.1 20.0 79 2.5 SSW 13 19 7 10 1015.1 1015.0 0.0
19/10:00am 22.0 22.8 19.0 83 1.9 SW 13 19 7 10 1015.0 1014.9 0.0
19/09:30am 21.3 22.0 19.6 90 1.1 SW 15 20 8 11 1014.9 1014.8 0.0
19/09:00am 20.4 21.4 19.4 94 0.6 SW 13 17 7 9 1014.4 1014.3 7.8
19/08:52am 20.1 21.7 19.1 94 0.6 SW 9 11 5 6 1014.4 1014.3 7.8
19/08:30am 19.8 20.9 18.8 94 0.6 SSW 11 17 6 9 1014.3 1014.2 6.6
19/08:00am 19.9 20.5 18.6 92 0.8 SSW 13 17 7 9 1014.0 1013.9 1.2
19/07:59am 20.0 20.6 18.7 92 0.8 SSW 13 17 7 9 1014.0 1013.9 1.0
19/07:30am 19.9 20.5 18.6 92 0.8 SW 13 19 7 10 1013.7 1013.6 0.2
19/07:00am 20.0 19.8 18.5 91 0.9 SW 17 22 9 12 1013.4 1013.3 0.2
19/06:30am 20.0 20.1 18.3 90 1.1 SSW 15 19 8 10 1013.2 1013.1 0.2
19/06:00am 19.9 19.9 18.2 90 1.1 SW 15 19 8 10 1013.0 1012.9 0.0
19/05:30am 20.0 19.7 18.3 90 1.1 SW 17 20 9 11 1013.0 1012.9 0.0
19/05:00am 20.0 20.0 18.1 89 1.2 SW 15 20 8 11 1012.8 1012.7 0.0
19/04:30am 19.8 19.4 18.1 90 1.1 SW 17 20 9 11 1012.7 1012.6 0.0
19/04:00am 19.8 19.8 18.1 90 1.1 SW 15 19 8 10 1012.7 1012.6 0.0
19/03:30am 19.8 19.4 18.1 90 1.1 SW 17 24 9 13 1012.9 1012.8 0.0
19/03:00am 19.9 19.3 18.4 91 0.9 SW 19 24 10 13 1013.1 1013.0 0.0
19/02:30am 19.8 20.0 18.5 92 0.8 SW 15 20 8 11 1013.3 1013.2 0.0
19/02:00am 20.0 20.6 18.5 91 0.9 SW 13 19 7 10 1013.6 1013.5 0.0
19/01:30am 20.2 20.0 18.5 90 1.1 SW 17 24 9 13 1013.7 1013.6 0.0
19/01:03am 20.3 20.9 18.6 90 1.1 SW 13 19 7 10 1014.0 1013.9 0.0
19/01:00am 20.3 20.9 18.6 90 1.1 SW 13 17 7 9 1014.0 1013.9 0.0
19/12:50am 20.2 21.1 18.3 89 1.2 SW 11 17 6 9 1014.1 1014.0 0.0
19/12:30am 20.1 21.8 18.4 90 1.1 SW 7 9 4 5 1014.1 1014.0 0.0
19/12:00am 19.6 22.0 17.9 90 1.0 SW 2 7 1 4 1014.1 1014.0 0.0
 
Date/Time
EDT
Temp
°C
App
Temp
°C
Dew
Point
°C
Rel
Hum
%
Delta-T
°C
Wind Press
QNH
hPa
Press
MSL
hPa
Rain since
9am
mm
Dir  Spd
km/h
Gust
km/h
Spd
kts
Gust
kts
18/11:30pm 20.0 21.5 18.1 89 1.2 WSW 7 9 4 5 1014.3 1014.2 0.0
18/11:00pm 20.1 21.6 18.1 88 1.2 SW 7 9 4 5 1014.2 1014.1 0.0
18/10:30pm 20.7 21.6 18.5 87 1.4 SW 11 15 6 8 1014.5 1014.4 0.0
18/10:00pm 21.1 22.5 18.7 86 1.5 SSW 9 15 5 8 1014.5 1014.4 0.0
18/09:30pm 21.4 22.2 19.1 87 1.5 SW 13 15 7 8 1014.4 1014.3 0.0
18/09:00pm 22.1 22.8 19.6 86 1.6 SSW 15 20 8 11 1014.2 1014.1 0.0
18/08:51pm 22.1 22.6 19.3 84 1.8 S 15 19 8 10 1014.1 1014.0 0.0
18/08:30pm 22.3 23.8 19.7 85 1.7 S 11 13 6 7 1014.1 1014.0 0.0
18/08:11pm 22.4 23.9 19.8 85 1.7 S 11 15 6 8 1013.7 1013.6 0.0
18/08:00pm 22.5 24.4 19.7 84 1.8 S 9 15 5 8 1013.6 1013.5 0.0
18/07:30pm 22.5 23.6 18.9 80 2.3 S 11 15 6 8 1013.3 1013.2 0.0
18/07:00pm 22.7 23.3 18.7 78 2.5 S 13 17 7 9 1013.0 1012.9 0.0
18/06:30pm 23.2 23.8 18.7 76 2.8 SSE 13 17 7 9 1012.9 1012.8 0.0
18/06:00pm 23.7 24.0 17.9 70 3.6 SE 13 19 7 10 1012.8 1012.7 0.0
18/05:30pm 23.5 23.9 18.2 72 3.3 SE 13 19 7 10 1012.7 1012.6 0.0
18/05:00pm 23.9 24.0 18.3 71 3.5 SSE 15 19 8 10 1012.6 1012.5 0.0
18/04:30pm 24.6 24.9 18.8 70 3.7 SE 15 20 8 11 1012.4 1012.3 0.0
18/04:00pm 24.4 24.3 17.9 67 4.1 ESE 15 20 8 11 1012.3 1012.2 0.0
18/03:30pm 24.4 24.4 18.1 68 4.0 SE 15 20 8 11 1012.6 1012.5 0.0
18/03:00pm 24.7 24.7 18.2 67 4.1 ESE 15 19 8 10 1012.7 1012.6 0.0
18/02:30pm 24.8 24.9 18.3 67 4.1 ESE 15 19 8 10 1013.0 1012.9 0.0
18/02:00pm 24.5 24.8 18.7 70 3.7 ESE 15 20 8 11 1013.1 1013.0 0.0
18/01:30pm 24.0 24.0 18.2 70 3.6 ESE 15 19 8 10 1013.2 1013.1 0.0
18/01:00pm 24.2 24.5 19.7 76 2.9 SE 17 24 9 13 1013.0 1012.9 0.0
18/12:30pm 22.9 23.4 19.3 80 2.3 SSE 15 19 8 10 1013.0 1012.9 0.0
18/12:00pm 22.9 23.4 18.4 76 2.8 SSE 13 17 7 9 1013.2 1013.1 0.0
18/11:30am 22.9 23.9 18.7 77 2.7 SE 11 15 6 8 1013.5 1013.4 0.0
18/11:00am 22.7 24.2 18.9 79 2.4 ESE 9 13 5 7 1013.5 1013.4 0.0
18/10:30am 23.3 24.5 19.0 77 2.7 ENE 11 15 6 8 1013.3 1013.2 0.0
18/10:00am 21.8 21.6 18.6 82 2.0 ENE 17 22 9 12 1013.1 1013.0 0.0
18/09:42am 21.3 19.7 18.3 83 1.9 ENE 24 28 13 15 1012.9 1012.8 0.0
18/09:30am 21.3 19.8 18.5 84 1.8 ENE 24 28 13 15 1012.9 1012.8 0.0
18/09:00am 20.9 18.5 19.2 90 1.1 ENE 30 35 16 19 1012.3 1012.2 56.8
18/08:30am 22.1 22.3 20.2 89 1.2 ESE 19 28 10 15 1011.5 1011.4 56.8
18/08:00am 21.8 21.9 20.4 92 0.9 SE 20 30 11 16 1010.9 1010.8 56.6
18/07:40am 21.3 22.0 19.6 90 1.1 SE 15 22 8 12 1010.7 1010.6 56.6
18/07:30am 21.3 21.7 18.9 86 1.5 SE 15 22 8 12 1010.6 1010.5 56.6
18/07:03am 21.1 20.3 18.5 85 1.6 ESE 20 28 11 15 1010.3 1010.2 56.6
18/07:00am 21.0 20.3 18.6 86 1.5 ESE 20 28 11 15 1010.3 1010.2 56.6
18/06:30am 21.5 21.7 20.1 92 0.9 SE 19 24 10 13 1009.8 1009.7 56.6
18/06:00am 20.1 20.9 19.1 94 0.6 S 13 20 7 11 1009.8 1009.7 56.4
18/05:30am 19.9 20.3 19.1 95 0.5 SSW 15 20 8 11 1009.5 1009.4 56.2
18/05:12am 19.3 19.1 18.5 95 0.5 SSW 17 26 9 14 1009.5 1009.4 56.0
18/05:09am 19.3 19.1 18.5 95 0.5 SSW 17 26 9 14 1009.5 1009.4 56.0
18/05:00am 19.1 18.2 18.1 94 0.6 SW 20 32 11 17 1009.6 1009.5 56.0
18/04:55am 19.1 17.4 18.1 94 0.6 SW 24 32 13 17 1009.6 1009.5 56.0
18/04:30am 18.9 17.5 17.9 94 0.6 SSW 22 32 12 17 1009.7 1009.6 54.2
18/04:00am 18.7 16.9 17.9 95 0.5 SSW 24 33 13 18 1009.9 1009.8 54.2
18/03:57am 18.6 17.1 17.8 95 0.5 SSW 22 33 12 18 1009.8 1009.7 54.2
18/03:45am 18.6 16.4 17.8 95 0.5 SW 26 35 14 19 1009.9 1009.8 54.2
18/03:30am 18.4 15.7 17.6 95 0.5 SW 28 39 15 21 1010.0 1009.9 52.8
18/03:26am 18.4 16.5 17.6 95 0.5 SW 24 33 13 18 1010.1 1010.0 52.6
18/03:00am 18.2 15.9 17.6 96 0.4 SSW 26 33 14 18 1010.6 1010.5 49.8
18/02:35am 18.0 15.2 17.2 95 0.5 SW 28 37 15 20 1010.7 1010.6 44.2
18/02:33am 18.0 15.2 17.2 95 0.5 SW 28 37 15 20 1010.8 1010.7 43.6
18/02:30am 18.0 15.2 17.2 95 0.5 SW 28 39 15 21 1010.8 1010.7 43.2
18/02:13am 17.9 15.0 17.1 95 0.5 SW 28 44 15 24 1010.8 1010.7 42.0
18/02:11am 17.9 14.6 17.1 95 0.5 SW 30 44 16 24 1010.8 1010.7 41.8
18/02:00am 17.8 14.9 17.0 95 0.5 SW 28 46 15 25 1010.7 1010.6 41.0
18/01:56am 17.7 14.7 16.9 95 0.5 SW 28 46 15 25 1010.6 1010.5 40.6
18/01:30am 17.7 13.9 16.6 93 0.7 SW 32 43 17 23 1010.9 1010.8 35.4
18/01:19am 17.7 13.3 16.6 93 0.7 SW 35 48 19 26 1011.0 1010.9 33.8
18/01:00am 17.7 13.8 16.4 92 0.8 SW 32 46 17 25 1011.1 1011.0 32.8
18/12:32am 17.4 13.2 16.3 93 0.7 SW 33 52 18 28 1011.1 1011.0 32.6
18/12:30am 17.4 13.4 16.3 93 0.7 SW 32 48 17 26 1011.3 1011.2 32.4
18/12:26am 17.4 13.4 16.3 93 0.7 SW 32 43 17 23 1011.5 1011.4 32.2
18/12:07am 17.2 13.5 16.1 93 0.7 SW 30 48 16 26 1011.8 1011.7 30.8
18/12:00am 17.2 13.5 16.1 93 0.7 SW 30 43 16 23 1012.0 1011.9 30.2
 
Date/Time
EDT
Temp
°C
App
Temp
°C
Dew
Point
°C
Rel
Hum
%
Delta-T
°C
Wind Press
QNH
hPa
Press
MSL
hPa
Rain since
9am
mm
Dir  Spd
km/h
Gust
km/h
Spd
kts
Gust
kts
17/11:47pm 17.1 14.1 15.8 92 0.8 WSW 26 37 14 20 1012.2 1012.1 28.6
17/11:31pm 17.1 14.1 15.8 92 0.8 WSW 26 41 14 22 1012.6 1012.5 27.8
17/11:30pm 17.1 14.1 15.8 92 0.8 WSW 26 41 14 22 1012.7 1012.6 27.8
17/11:00pm 17.1 14.1 15.8 92 0.8 WSW 26 35 14 19 1013.4 1013.3 24.8
17/10:35pm 17.2 14.1 15.7 91 0.9 WSW 26 39 14 21 1013.4 1013.3 20.4
17/10:30pm 17.2 14.1 15.7 91 0.9 WSW 26 35 14 19 1013.6 1013.5 19.8
17/10:00pm 17.4 14.4 15.9 91 0.9 WSW 26 35 14 19 1013.8 1013.7 17.4
17/09:35pm 17.5 14.2 16.0 91 0.9 SW 28 46 15 25 1014.2 1014.1 15.6
17/09:30pm 17.6 13.9 16.1 91 0.9 SW 30 41 16 22 1014.3 1014.2 15.4
17/09:27pm 17.6 13.9 16.1 91 0.9 SW 30 41 16 22 1014.2 1014.1 15.4
17/09:08pm 17.5 15.3 16.0 91 0.9 SW 22 32 12 17 1014.5 1014.4 13.8
17/09:00pm 17.5 14.9 15.8 90 1.0 SW 24 35 13 19 1014.5 1014.4 13.0
17/08:30pm 17.9 15.3 15.9 88 1.2 SW 24 35 13 19 1014.3 1014.2 11.0
17/08:00pm 18.2 16.4 16.0 87 1.3 SW 20 28 11 15 1014.4 1014.3 9.0
17/07:30pm 18.3 16.3 15.6 84 1.6 SW 20 28 11 15 1014.4 1014.3 7.8
17/07:00pm 18.4 16.0 15.3 82 1.8 SW 22 28 12 15 1014.7 1014.6 7.8
17/06:30pm 19.6 17.0 14.8 74 2.8 SSW 22 33 12 18 1014.7 1014.6 7.2
17/06:00pm 20.8 17.6 14.2 66 3.8 SSW 24 41 13 22 1014.5 1014.4 6.8
17/05:30pm 21.2 18.6 13.9 63 4.2 SSW 20 28 11 15 1014.5 1014.4 6.8
17/05:00pm 21.8 18.9 13.9 61 4.6 SSW 22 33 12 18 1014.4 1014.3 6.8
17/04:30pm 22.2 19.7 15.1 64 4.2 SSW 22 32 12 17 1014.5 1014.4 6.8
17/04:00pm 22.1 19.5 15.9 68 3.7 S 24 32 13 17 1015.1 1015.0 6.8
17/03:30pm 22.1 18.9 16.4 70 3.5 S 28 39 15 21 1015.3 1015.2 6.8
17/03:00pm 21.0 19.9 17.8 82 2.0 SSW 20 30 11 16 1015.6 1015.5 6.8
17/02:30pm 19.6 18.8 17.9 90 1.0 SSW 19 26 10 14 1016.0 1015.9 6.8
17/02:22pm 19.4 18.3 17.7 90 1.0 SSW 20 30 11 16 1016.1 1016.0 6.6
17/02:00pm 19.2 18.3 17.7 91 0.9 S 19 28 10 15 1016.7 1016.6 5.0
17/01:51pm 19.8 17.9 17.6 87 1.3 S 24 32 13 17 1016.7 1016.6 1.6
17/01:30pm 22.3 20.1 15.9 67 3.9 S 22 30 12 16 1016.8 1016.7 0.0
17/01:00pm 23.7 20.5 16.2 63 4.6 SSW 28 35 15 19 1016.9 1016.8 0.0
17/12:30pm 23.4 21.3 16.2 64 4.4 SSW 22 35 12 19 1017.4 1017.3 0.0
17/12:00pm 23.3 22.1 17.5 70 3.6 SSW 20 32 11 17 1017.8 1017.7 0.0
17/11:30am 23.0 21.8 17.5 71 3.4 SSW 20 33 11 18 1018.2 1018.1 0.0
17/11:00am 22.3 21.2 17.2 73 3.1 SSW 19 30 10 16 1018.7 1018.6 0.0
17/10:30am 21.7 20.7 17.5 77 2.6 SSW 19 24 10 13 1018.9 1018.8 0.0
17/10:00am 21.1 20.0 17.3 79 2.3 SSW 19 26 10 14 1019.0 1018.9 0.0
17/09:30am 20.3 19.4 17.7 85 1.6 SW 19 26 10 14 1018.9 1018.8 0.0
17/09:00am 19.5 19.6 17.5 88 1.2 SW 13 20 7 11 1019.4 1019.3 8.8
17/08:30am 19.0 19.0 17.1 89 1.2 SSW 13 19 7 10 1019.3 1019.2 8.8
17/08:00am 18.7 18.4 17.4 92 0.8 SW 15 20 8 11 1019.1 1019.0 8.8
17/07:30am 18.2 18.5 17.0 93 0.7 WSW 11 17 6 9 1019.1 1019.0 8.8
17/07:00am 18.2 18.5 17.0 93 0.7 SW 11 15 6 8 1019.0 1018.9 8.8
17/06:30am 18.2 18.5 17.0 93 0.7 WSW 11 15 6 8 1018.8 1018.7 8.8
17/06:00am 18.2 18.9 17.0 93 0.7 WSW 9 15 5 8 1018.7 1018.6 8.8
17/05:30am 18.1 18.4 17.0 93 0.7 WSW 11 17 6 9 1018.7 1018.6 8.8
17/05:00am 18.1 18.1 17.1 94 0.6 WSW 13 20 7 11 1018.5 1018.4 8.8
17/04:30am 18.0 18.4 17.2 95 0.5 SW 11 15 6 8 1018.4 1018.3 8.8
17/04:00am 18.2 18.3 17.4 95 0.5 SW 13 15 7 8 1018.6 1018.5 8.8
17/03:30am 18.3 18.4 17.5 95 0.5 WSW 13 15 7 8 1018.9 1018.8 8.8
17/03:00am 18.3 19.5 17.3 94 0.6 WSW 7 9 4 5 1019.5 1019.4 8.8
17/02:30am 18.4 19.6 17.4 94 0.6 WSW 7 11 4 6 1019.8 1019.7 8.8
17/02:00am 18.6 19.5 17.6 94 0.6 W 9 13 5 7 1020.0 1019.9 8.2

Latest Capital City Observations: Canberra | Sydney | Melbourne | Brisbane | Adelaide | Perth | Hobart | Darwin

Other formats

Comma delimited format used in spreadsheet applications
http://www.bom.gov.au/fwo/IDN60903/IDN60903.95937.axf

JavaScript Object Notation format (JSON) in row-major order
http://www.bom.gov.au/fwo/IDN60903/IDN60903.95937.json

Data quality

Most of these data are generated automatically and are frequently updated. Quality checks on data are not normally performed. It is possible for incorrect values to appear. Refer to information at About Latest Weather Observations and please check the disclaimer before using these data.